Aérodrome :
LOGIN :

S'inscrire | Disclaimer

   EN    FR    IT 

 










Légende :    VFR   VFR Marginal   IFR   IFR Intensif   IFR Très Intensif
Visi : 
Plafond : 
>= 8 km
>= 3000ft
5 à 8 km
1000 à 3000 ft
1500m à 5 km
500 à 1000 ft
800 à 1500m
200 à 500 ft
< 800m
< 200 ft
Symboles :   Orages  Brouillard  Fortes neiges  Fortes précipitations  Vent > 20 kt
SIGMETs :   Divers  Orages  Givrage  Turbulence  Onde Orograph.  Cendres Volcan.






- Altitude de l'aérodrome : 16 ft
- Code IATA : SDR


LEXJ - Santander Cantabria

DERNIER METAR :
  • 201130Z 09006KT 060V120 9999 FEW042 BKN057 08/01 Q1036 REDZ

METARs EXPIRÉS :
  • 201100Z 09008KT 060V130 9999 -DZ FEW036 BKN050 08/01 Q1037
  • 201030Z 07009KT 020V110 9999 FEW038 BKN045 08/01 Q1037
  • 201000Z 09008KT 050V140 9999 SCT035 BKN046 08/01 Q1037
  • 200930Z 07010KT 030V110 9999 SCT035 BKN052 08/00 Q1037

TAF TAF LEXJ
Valide du 20 à 09h jusqu'au 21 à 09h UTC


200800Z 2009/2109 07009KT 9999 SCT035 SCT045 TX09/2015Z TN04/2106Z
TEMPO 2009/2015 07015G27KT



MET'MAP, la Météo Aéronautique d'un coup d'oeil ! - Copyright ORBIFLY Décembre 2007 - Disclaimer

ORBIFLY MET'MAP TEAM :

Programmation & Développement : Alexandra Zaïnal
Sur une idée originale de : Baudouin d'Aumeries
Assistance à la programmation : Marc-Olivier Méhu
Soutien technique & logistique : Manuel Goepfert

Contact : metmap@orbifly.com




SOURCES & CREDITS :

   NOAA